Miguel Torga — CSKE — position and weather

sailwx.info

Track history (hours):
 
Tides and Currents Weather Stations Pressure Air Temp Water Temp Dewpoint Dewpoint Depression Visibility Wind Speed Wind Dir Waves Ship Positions

Miguel Torga

Last reported at 2017-Dec-15 04:30 UTC. Time now 2017-Dec-15 04:43 UTC.
Position N 38°39' W 009°05'.

Length 50 m.

Type: Ship. MMSI: 263701370.

Date/timePositionNaut miles runAvg speedWind from/ knotsBaromVisibWave heightAir tempDewpointWater temp
2017-Dec-15 04:30N 38°39' W 009°05'0 0.0
2017-Dec-15 04:01N 38°39' W 009°05'0 0.0
2017-Dec-15 02:30N 38°39' W 009°05'4 2.8
2017-Dec-15 01:00N 38°42' W 009°08'4 8.3
2017-Dec-15 00:30N 38°39' W 009°05'4 0.7
2017-Dec-14 18:31N 38°42' W 009°08'4 8.3
2017-Dec-14 18:00N 38°39' W 009°05'4 7.7
2017-Dec-14 17:30N 38°42' W 009°08'2 3.9
2017-Dec-14 17:01N 38°40' W 009°07'0 0.5
2017-Dec-14 16:31N 38°40' W 009°07'2 5.0
2017-Dec-14 16:01N 38°39' W 009°05'3 3.3
2017-Dec-14 15:00N 38°41' W 009°08'3 5.1
2017-Dec-14 14:30N 38°39' W 009°06'3 5.7
2017-Dec-14 14:01N 38°42' W 009°08'3 5.5
2017-Dec-14 13:31N 38°39' W 009°06'1 1.4
2017-Dec-14 13:00N 38°39' W 009°05'0 0.0
2017-Dec-14 12:30N 38°39' W 009°05'0 0.0
2017-Dec-14 12:00N 38°39' W 009°05'0 0.0
2017-Dec-14 11:30N 38°39' W 009°05'0 0.2
2017-Dec-14 11:01N 38°39' W 009°05'3 6.9
2017-Dec-14 10:30N 38°42' W 009°08'3 5.8
2017-Dec-14 10:01N 38°39' W 009°06'1 1.6
2017-Dec-14 09:30N 38°39' W 009°05'4 7.9
2017-Dec-14 09:01N 38°42' W 009°08'2 4.7
2017-Dec-14 08:31N 38°40' W 009°07'1 2.4
2017-Dec-14 08:01N 38°39' W 009°06'3 7.0
2017-Dec-14 07:30N 38°42' W 009°08'4 8.4
2017-Dec-14 07:01N 38°39' W 009°05'4 7.6
2017-Dec-14 06:30N 38°42' W 009°08'3 6.9
2017-Dec-14 06:00N 38°39' W 009°05'4 7.1
2017-Dec-14 05:30N 38°42' W 009°08'4 7.8
2017-Dec-14 05:00N 38°39' W 009°05'0 0.0
2017-Dec-14 04:30N 38°39' W 009°05'0 0.0
2017-Dec-14 04:00N 38°39' W 009°05'0 0.0
2017-Dec-14 03:30N 38°39' W 009°05'0 0.0
2017-Dec-14 03:00N 38°39' W 009°05'0 0.0
2017-Dec-14 02:30N 38°39' W 009°05'4 8.3
2017-Dec-14 02:00N 38°42' W 009°08'4 8.3
2017-Dec-14 01:30N 38°39' W 009°05'4 8.3
2017-Dec-14 01:00N 38°42' W 009°08'4 8.3
2017-Dec-14 00:30N 38°39' W 009°05'4 8.3
2017-Dec-14 00:00N 38°42' W 009°08'4 8.3
2017-Dec-13 23:30N 38°39' W 009°05'3 6.7
2017-Dec-13 23:01N 38°41' W 009°08'3 5.5
2017-Dec-13 22:31N 38°39' W 009°06'3 5.6
2017-Dec-13 22:00N 38°41' W 009°08'3 5.4
2017-Dec-13 21:30N 38°39' W 009°06'1 2.4
2017-Dec-13 21:01N 38°40' W 009°07'1 1.3
2017-Dec-13 20:31N 38°41' W 009°07'3 5.0
2017-Dec-13 20:00N 38°39' W 009°05'2 4.1
2017-Dec-13 19:31N 38°40' W 009°07'1 1.7
2017-Dec-13 19:01N 38°40' W 009°06'3 6.1
2017-Dec-13 18:31N 38°42' W 009°08'4 8.3
2017-Dec-13 18:00N 38°39' W 009°05'4 7.8
2017-Dec-13 17:30N 38°42' W 009°08'2 3.9
2017-Dec-13 17:01N 38°40' W 009°07'0 0.8
2017-Dec-13 16:31N 38°41' W 009°07'2 5.0
2017-Dec-13 16:00N 38°39' W 009°05'0 0.0
2017-Dec-13 15:30N 38°39' W 009°05'4 7.1
2017-Dec-13 15:01N 38°42' W 009°08'3 5.2
2017-Dec-13 14:30N 38°40' W 009°06'2 4.9
2017-Dec-13 14:00N 38°42' W 009°08'3 5.8
2017-Dec-13 13:31N 38°39' W 009°06'1 1.2
2017-Dec-13 12:58N 38°39' W 009°05'0 0.0
2017-Dec-13 12:30N 38°39' W 009°05'0 0.0
2017-Dec-13 12:00N 38°39' W 009°05'0 0.0
2017-Dec-13 11:29N 38°39' W 009°05'0 0.0
2017-Dec-13 11:00N 38°39' W 009°05'4 7.2
2017-Dec-13 10:30N 38°42' W 009°08'3 6.1
2017-Dec-13 10:00N 38°39' W 009°05'1 1.3
2017-Dec-13 09:30N 38°39' W 009°05'4 7.6
2017-Dec-13 09:00N 38°42' W 009°08'2 4.2
2017-Dec-13 08:31N 38°40' W 009°07'1 2.5
2017-Dec-13 08:01N 38°39' W 009°06'3 6.7
2017-Dec-13 07:30N 38°42' W 009°08'4 8.3
2017-Dec-13 07:00N 38°39' W 009°05'4 7.0
2017-Dec-13 06:30N 38°42' W 009°08'3 6.6
2017-Dec-13 06:00N 38°39' W 009°05'3 7.0
2017-Dec-13 05:30N 38°42' W 009°08'4 7.3
2017-Dec-13 05:00N 38°39' W 009°05'0 0.0
2017-Dec-13 04:30N 38°39' W 009°05'0 0.0
2017-Dec-13 04:00N 38°39' W 009°05'0 0.0
2017-Dec-13 03:30N 38°39' W 009°05'0 0.0
2017-Dec-13 03:00N 38°39' W 009°05'0 0.0
2017-Dec-13 02:30N 38°39' W 009°05'4 8.3
2017-Dec-13 02:00N 38°42' W 009°08'4 8.3
2017-Dec-13 01:31N 38°39' W 009°05'4 8.3
2017-Dec-13 01:01N 38°42' W 009°08'4 8.3
2017-Dec-13 00:30N 38°39' W 009°05'4 8.4
2017-Dec-13 00:01N 38°42' W 009°08'4 8.1
2017-Dec-12 23:30N 38°39' W 009°05'3 6.7
2017-Dec-12 23:00N 38°41' W 009°08'2 4.6
2017-Dec-12 22:30N 38°40' W 009°06'2 4.9
2017-Dec-12 22:00N 38°41' W 009°08'3 5.5
2017-Dec-12 21:30N 38°39' W 009°06'1 1.6
2017-Dec-12 21:00N 38°39' W 009°05'0 0.0
2017-Dec-12 20:30N 38°39' W 009°05'4 8.6
2017-Dec-12 20:00N 38°42' W 009°08'4 8.2
2017-Dec-12 19:30N 38°39' W 009°05'4 7.6
2017-Dec-12 19:01N 38°42' W 009°08'2 3.6
2017-Dec-12 18:31N 38°40' W 009°07'2 3.1
2017-Dec-12 18:00N 38°39' W 009°06'4 7.0
2017-Dec-12 17:31N 38°42' W 009°08'4 8.4
2017-Dec-12 17:00N 38°39' W 009°05'4 8.1
2017-Dec-12 16:30N 38°42' W 009°08'4 8.5
2017-Dec-12 16:00N 38°39' W 009°05'3 6.8
2017-Dec-12 15:30N 38°42' W 009°07'3 5.7
2017-Dec-12 15:00N 38°39' W 009°06'3 6.9
2017-Dec-12 14:30N 38°42' W 009°09'4 7.1
2017-Dec-12 14:00N 38°39' W 009°06'3 6.9
2017-Dec-12 13:30N 38°42' W 009°08'4 7.4
2017-Dec-12 13:00N 38°39' W 009°05'4 7.3
2017-Dec-12 12:31N 38°42' W 009°08'4 7.0
2017-Dec-12 12:00N 38°39' W 009°05'4 7.3
2017-Dec-12 11:31N 38°42' W 009°08'3 6.7
2017-Dec-12 11:00N 38°39' W 009°06'1 1.4
2017-Dec-12 10:30N 38°39' W 009°05'0 0.1
2017-Dec-12 10:00N 38°39' W 009°05'4 8.4
2017-Dec-12 09:31N 38°42' W 009°08'4 8.3
2017-Dec-12 09:01N 38°39' W 009°05'4 7.6
2017-Dec-12 08:30N 38°42' W 009°08'2 4.7
2017-Dec-12 08:01N 38°40' W 009°07'1 1.6
2017-Dec-12 07:30N 38°40' W 009°06'1 2.0
2017-Dec-12 07:00N 38°39' W 009°05'0 0.0
2017-Dec-12 06:30N 38°39' W 009°05'0 0.0
2017-Dec-11 21:44N 38°39' W 009°05'0 0.6
2017-Dec-11 21:30N 38°39' W 009°05'4 8.3
2017-Dec-11 21:00N 38°42' W 009°08'4 8.2
2017-Dec-11 20:30N 38°39' W 009°05'2 4.3
2017-Dec-11 20:00N 38°40' W 009°07'0 0.9
2017-Dec-11 19:30N 38°40' W 009°07'1 1.1
2017-Dec-11 19:01N 38°40' W 009°07'1 1.8
2017-Dec-11 18:30N 38°40' W 009°06'3 6.4
2017-Dec-11 18:01N 38°42' W 009°08'4 8.3
2017-Dec-11 17:30N 38°39' W 009°05'4 8.3
2017-Dec-11 17:01N 38°42' W 009°08'3 6.8
2017-Dec-11 16:30N 38°39' W 009°06'2 4.2
2017-Dec-11 16:01N 38°41' W 009°08'3 5.6
2017-Dec-11 15:30N 38°39' W 009°05'1 0.4
2017-Dec-11 13:14N 38°40' W 009°06'311.4
2017-Dec-11 13:00N 38°42' W 009°07'3 5.8
2017-Dec-11 12:30N 38°39' W 009°06'3 5.9
2017-Dec-11 12:00N 38°42' W 009°08'3 6.2
2017-Dec-11 11:30N 38°39' W 009°06'1 1.4
2017-Dec-11 11:00N 38°39' W 009°05'0 0.1
2017-Dec-11 10:30N 38°39' W 009°05'4 8.1
2017-Dec-11 10:00N 38°42' W 009°08'4 8.1
2017-Dec-11 09:31N 38°39' W 009°05'4 8.3
2017-Dec-11 09:00N 38°42' W 009°08'4 7.5
2017-Dec-11 08:31N 38°39' W 009°06'2 3.3
2017-Dec-11 08:00N 38°40' W 009°07'1 1.5
2017-Dec-11 07:31N 38°40' W 009°06'1 1.8
2017-Dec-11 07:01N 38°39' W 009°06'1 0.1
2017-Dec-10 21:50N 38°39' W 009°05'411.3
2017-Dec-10 21:30N 38°42' W 009°08'3 5.7
2017-Dec-10 21:00N 38°39' W 009°06'1 1.7
2017-Dec-10 20:30N 38°39' W 009°05'3 6.7
2017-Dec-10 20:00N 38°42' W 009°08'2 4.4
2017-Dec-10 19:31N 38°40' W 009°06'3 5.0
2017-Dec-10 19:00N 38°42' W 009°08'3 5.8
2017-Dec-10 18:30N 38°39' W 009°06'3 5.7
2017-Dec-10 18:00N 38°42' W 009°08'3 5.8
2017-Dec-10 17:30N 38°39' W 009°06'3 5.6
2017-Dec-10 17:00N 38°42' W 009°08'3 5.2
2017-Dec-10 16:30N 38°40' W 009°06'3 5.2
2017-Dec-10 16:00N 38°42' W 009°08'3 5.6
2017-Dec-10 15:31N 38°39' W 009°06'3 6.0
2017-Dec-10 15:00N 38°42' W 009°08'3 6.3
2017-Dec-10 14:30N 38°39' W 009°06'3 6.3
2017-Dec-10 14:00N 38°42' W 009°08'3 5.8
2017-Dec-10 13:30N 38°39' W 009°06'1 0.2
2017-Dec-10 08:37N 38°39' W 009°05'1 6.1
2017-Dec-10 08:30N 38°39' W 009°06'1 1.2
2017-Dec-10 08:00N 38°39' W 009°05'0 0.8
2017-Dec-10 07:30N 38°39' W 009°05'2 4.0
2017-Dec-10 07:01N 38°40' W 009°07'1 2.6
2017-Dec-10 06:30N 38°40' W 009°06'2 4.5
2017-Dec-10 06:00N 38°42' W 009°08'3 6.7
2017-Dec-10 05:30N 38°39' W 009°05'  
2017-Dec-07 21:30N 38°39' W 009°05'4 8.4
2017-Dec-07 21:00N 38°42' W 009°08'4 8.3
2017-Dec-07 20:30N 38°39' W 009°05'2 4.7
2017-Dec-07 20:01N 38°40' W 009°07'1 1.4
2017-Dec-07 19:30N 38°41' W 009°08'1 1.1
2017-Dec-07 19:00N 38°40' W 009°07'1 2.9
2017-Dec-07 18:30N 38°39' W 009°06'3 6.7
2017-Dec-07 18:00N 38°42' W 009°08'4 8.4
2017-Dec-07 17:31N 38°39' W 009°05'4 8.4
2017-Dec-07 17:01N 38°42' W 009°08'4 7.4
2017-Dec-07 16:30N 38°39' W 009°06'3 5.6
2017-Dec-07 16:00N 38°42' W 009°08'3 1.2
2017-Dec-07 13:25N 38°39' W 009°05'3 8.4
2017-Dec-07 13:00N 38°42' W 009°08'3 5.5
2017-Dec-07 12:30N 38°39' W 009°06'3 5.1
2017-Dec-07 12:01N 38°41' W 009°08'3 5.6
2017-Dec-07 11:30N 38°39' W 009°06'1 1.2
2017-Dec-07 10:59N 38°39' W 009°05'0 0.1
2017-Dec-07 10:30N 38°39' W 009°05'4 8.5
2017-Dec-07 10:01N 38°42' W 009°08'4 8.3
2017-Dec-07 09:30N 38°39' W 009°05'4 8.4
2017-Dec-07 09:00N 38°42' W 009°08'4 7.7
2017-Dec-07 08:30N 38°39' W 009°05'2 4.7
2017-Dec-07 08:00N 38°41' W 009°08'1 1.7
2017-Dec-07 07:31N 38°40' W 009°07'1 1.6
2017-Dec-07 07:01N 38°40' W 009°06'1 0.1
2017-Dec-06 21:35N 38°39' W 009°05'0 0.0
2017-Dec-06 21:30N 38°39' W 009°05'4 8.3
2017-Dec-06 21:00N 38°42' W 009°08'  
Track history (hours):
 
Tides and Currents Weather Stations Pressure Air Temp Water Temp Dewpoint Dewpoint Depression Visibility Wind Speed Wind Dir Waves Ship Positions

Miguel Torga

Last reported at 2017-Dec-15 04:30 UTC. Time now 2017-Dec-15 04:43 UTC.
Position N 38°39' W 009°05'.

Length 50 m.

Type: Ship. MMSI: 263701370.

Date/timePositionNaut miles runAvg speedWind from/ knotsBaromVisibWave heightAir tempDewpointWater temp
2017-Dec-15 04:30N 38°39' W 009°05'0 0.0
2017-Dec-15 04:01N 38°39' W 009°05'0 0.0
2017-Dec-15 02:30N 38°39' W 009°05'4 2.8
2017-Dec-15 01:00N 38°42' W 009°08'4 8.3
2017-Dec-15 00:30N 38°39' W 009°05'4 0.7
2017-Dec-14 18:31N 38°42' W 009°08'4 8.3
2017-Dec-14 18:00N 38°39' W 009°05'4 7.7
2017-Dec-14 17:30N 38°42' W 009°08'2 3.9
2017-Dec-14 17:01N 38°40' W 009°07'0 0.5
2017-Dec-14 16:31N 38°40' W 009°07'2 5.0
2017-Dec-14 16:01N 38°39' W 009°05'3 3.3
2017-Dec-14 15:00N 38°41' W 009°08'3 5.1
2017-Dec-14 14:30N 38°39' W 009°06'3 5.7
2017-Dec-14 14:01N 38°42' W 009°08'3 5.5
2017-Dec-14 13:31N 38°39' W 009°06'1 1.4
2017-Dec-14 13:00N 38°39' W 009°05'0 0.0
2017-Dec-14 12:30N 38°39' W 009°05'0 0.0
2017-Dec-14 12:00N 38°39' W 009°05'0 0.0
2017-Dec-14 11:30N 38°39' W 009°05'0 0.2
2017-Dec-14 11:01N 38°39' W 009°05'3 6.9
2017-Dec-14 10:30N 38°42' W 009°08'3 5.8
2017-Dec-14 10:01N 38°39' W 009°06'1 1.6
2017-Dec-14 09:30N 38°39' W 009°05'4 7.9
2017-Dec-14 09:01N 38°42' W 009°08'2 4.7
2017-Dec-14 08:31N 38°40' W 009°07'1 2.4
2017-Dec-14 08:01N 38°39' W 009°06'3 7.0
2017-Dec-14 07:30N 38°42' W 009°08'4 8.4
2017-Dec-14 07:01N 38°39' W 009°05'4 7.6
2017-Dec-14 06:30N 38°42' W 009°08'3 6.9
2017-Dec-14 06:00N 38°39' W 009°05'4 7.1
2017-Dec-14 05:30N 38°42' W 009°08'4 7.8
2017-Dec-14 05:00N 38°39' W 009°05'0 0.0
2017-Dec-14 04:30N 38°39' W 009°05'0 0.0
2017-Dec-14 04:00N 38°39' W 009°05'0 0.0
2017-Dec-14 03:30N 38°39' W 009°05'0 0.0
2017-Dec-14 03:00N 38°39' W 009°05'0 0.0
2017-Dec-14 02:30N 38°39' W 009°05'4 8.3
2017-Dec-14 02:00N 38°42' W 009°08'4 8.3
2017-Dec-14 01:30N 38°39' W 009°05'4 8.3
2017-Dec-14 01:00N 38°42' W 009°08'4 8.3
2017-Dec-14 00:30N 38°39' W 009°05'4 8.3
2017-Dec-14 00:00N 38°42' W 009°08'4 8.3
2017-Dec-13 23:30N 38°39' W 009°05'3 6.7
2017-Dec-13 23:01N 38°41' W 009°08'3 5.5
2017-Dec-13 22:31N 38°39' W 009°06'3 5.6
2017-Dec-13 22:00N 38°41' W 009°08'3 5.4
2017-Dec-13 21:30N 38°39' W 009°06'1 2.4
2017-Dec-13 21:01N 38°40' W 009°07'1 1.3
2017-Dec-13 20:31N 38°41' W 009°07'3 5.0
2017-Dec-13 20:00N 38°39' W 009°05'2 4.1
2017-Dec-13 19:31N 38°40' W 009°07'1 1.7
2017-Dec-13 19:01N 38°40' W 009°06'3 6.1
2017-Dec-13 18:31N 38°42' W 009°08'4 8.3
2017-Dec-13 18:00N 38°39' W 009°05'4 7.8
2017-Dec-13 17:30N 38°42' W 009°08'2 3.9
2017-Dec-13 17:01N 38°40' W 009°07'0 0.8
2017-Dec-13 16:31N 38°41' W 009°07'2 5.0
2017-Dec-13 16:00N 38°39' W 009°05'0 0.0
2017-Dec-13 15:30N 38°39' W 009°05'4 7.1
2017-Dec-13 15:01N 38°42' W 009°08'3 5.2
2017-Dec-13 14:30N 38°40' W 009°06'2 4.9
2017-Dec-13 14:00N 38°42' W 009°08'3 5.8
2017-Dec-13 13:31N 38°39' W 009°06'1 1.2
2017-Dec-13 12:58N 38°39' W 009°05'0 0.0
2017-Dec-13 12:30N 38°39' W 009°05'0 0.0
2017-Dec-13 12:00N 38°39' W 009°05'0 0.0
2017-Dec-13 11:29N 38°39' W 009°05'0 0.0
2017-Dec-13 11:00N 38°39' W 009°05'4 7.2
2017-Dec-13 10:30N 38°42' W 009°08'3 6.1
2017-Dec-13 10:00N 38°39' W 009°05'1 1.3
2017-Dec-13 09:30N 38°39' W 009°05'4 7.6
2017-Dec-13 09:00N 38°42' W 009°08'2 4.2
2017-Dec-13 08:31N 38°40' W 009°07'1 2.5
2017-Dec-13 08:01N 38°39' W 009°06'3 6.7
2017-Dec-13 07:30N 38°42' W 009°08'4 8.3
2017-Dec-13 07:00N 38°39' W 009°05'4 7.0
2017-Dec-13 06:30N 38°42' W 009°08'3 6.6
2017-Dec-13 06:00N 38°39' W 009°05'3 7.0
2017-Dec-13 05:30N 38°42' W 009°08'4 7.3
2017-Dec-13 05:00N 38°39' W 009°05'0 0.0
2017-Dec-13 04:30N 38°39' W 009°05'0 0.0
2017-Dec-13 04:00N 38°39' W 009°05'0 0.0
2017-Dec-13 03:30N 38°39' W 009°05'0 0.0
2017-Dec-13 03:00N 38°39' W 009°05'0 0.0
2017-Dec-13 02:30N 38°39' W 009°05'4 8.3
2017-Dec-13 02:00N 38°42' W 009°08'4 8.3
2017-Dec-13 01:31N 38°39' W 009°05'4 8.3
2017-Dec-13 01:01N 38°42' W 009°08'4 8.3
2017-Dec-13 00:30N 38°39' W 009°05'4 8.4
2017-Dec-13 00:01N 38°42' W 009°08'4 8.1
2017-Dec-12 23:30N 38°39' W 009°05'3 6.7
2017-Dec-12 23:00N 38°41' W 009°08'2 4.6
2017-Dec-12 22:30N 38°40' W 009°06'2 4.9
2017-Dec-12 22:00N 38°41' W 009°08'3 5.5
2017-Dec-12 21:30N 38°39' W 009°06'1 1.6
2017-Dec-12 21:00N 38°39' W 009°05'0 0.0
2017-Dec-12 20:30N 38°39' W 009°05'4 8.6
2017-Dec-12 20:00N 38°42' W 009°08'4 8.2
2017-Dec-12 19:30N 38°39' W 009°05'4 7.6
2017-Dec-12 19:01N 38°42' W 009°08'2 3.6
2017-Dec-12 18:31N 38°40' W 009°07'2 3.1
2017-Dec-12 18:00N 38°39' W 009°06'4 7.0
2017-Dec-12 17:31N 38°42' W 009°08'4 8.4
2017-Dec-12 17:00N 38°39' W 009°05'4 8.1
2017-Dec-12 16:30N 38°42' W 009°08'4 8.5
2017-Dec-12 16:00N 38°39' W 009°05'3 6.8
2017-Dec-12 15:30N 38°42' W 009°07'3 5.7
2017-Dec-12 15:00N 38°39' W 009°06'3 6.9
2017-Dec-12 14:30N 38°42' W 009°09'4 7.1
2017-Dec-12 14:00N 38°39' W 009°06'3 6.9
2017-Dec-12 13:30N 38°42' W 009°08'4 7.4
2017-Dec-12 13:00N 38°39' W 009°05'4 7.3
2017-Dec-12 12:31N 38°42' W 009°08'4 7.0
2017-Dec-12 12:00N 38°39' W 009°05'4 7.3
2017-Dec-12 11:31N 38°42' W 009°08'3 6.7
2017-Dec-12 11:00N 38°39' W 009°06'1 1.4
2017-Dec-12 10:30N 38°39' W 009°05'0 0.1
2017-Dec-12 10:00N 38°39' W 009°05'4 8.4
2017-Dec-12 09:31N 38°42' W 009°08'4 8.3
2017-Dec-12 09:01N 38°39' W 009°05'4 7.6
2017-Dec-12 08:30N 38°42' W 009°08'2 4.7
2017-Dec-12 08:01N 38°40' W 009°07'1 1.6
2017-Dec-12 07:30N 38°40' W 009°06'1 2.0
2017-Dec-12 07:00N 38°39' W 009°05'0 0.0
2017-Dec-12 06:30N 38°39' W 009°05'0 0.0
2017-Dec-11 21:44N 38°39' W 009°05'0 0.6
2017-Dec-11 21:30N 38°39' W 009°05'4 8.3
2017-Dec-11 21:00N 38°42' W 009°08'4 8.2
2017-Dec-11 20:30N 38°39' W 009°05'2 4.3
2017-Dec-11 20:00N 38°40' W 009°07'0 0.9
2017-Dec-11 19:30N 38°40' W 009°07'1 1.1
2017-Dec-11 19:01N 38°40' W 009°07'1 1.8
2017-Dec-11 18:30N 38°40' W 009°06'3 6.4
2017-Dec-11 18:01N 38°42' W 009°08'4 8.3
2017-Dec-11 17:30N 38°39' W 009°05'4 8.3
2017-Dec-11 17:01N 38°42' W 009°08'3 6.8
2017-Dec-11 16:30N 38°39' W 009°06'2 4.2
2017-Dec-11 16:01N 38°41' W 009°08'3 5.6
2017-Dec-11 15:30N 38°39' W 009°05'1 0.4
2017-Dec-11 13:14N 38°40' W 009°06'311.4
2017-Dec-11 13:00N 38°42' W 009°07'3 5.8
2017-Dec-11 12:30N 38°39' W 009°06'3 5.9
2017-Dec-11 12:00N 38°42' W 009°08'3 6.2
2017-Dec-11 11:30N 38°39' W 009°06'1 1.4
2017-Dec-11 11:00N 38°39' W 009°05'0 0.1
2017-Dec-11 10:30N 38°39' W 009°05'4 8.1
2017-Dec-11 10:00N 38°42' W 009°08'4 8.1
2017-Dec-11 09:31N 38°39' W 009°05'4 8.3
2017-Dec-11 09:00N 38°42' W 009°08'4 7.5
2017-Dec-11 08:31N 38°39' W 009°06'2 3.3
2017-Dec-11 08:00N 38°40' W 009°07'1 1.5
2017-Dec-11 07:31N 38°40' W 009°06'1 1.8
2017-Dec-11 07:01N 38°39' W 009°06'1 0.1
2017-Dec-10 21:50N 38°39' W 009°05'411.3
2017-Dec-10 21:30N 38°42' W 009°08'3 5.7
2017-Dec-10 21:00N 38°39' W 009°06'1 1.7
2017-Dec-10 20:30N 38°39' W 009°05'3 6.7
2017-Dec-10 20:00N 38°42' W 009°08'2 4.4
2017-Dec-10 19:31N 38°40' W 009°06'3 5.0
2017-Dec-10 19:00N 38°42' W 009°08'3 5.8
2017-Dec-10 18:30N 38°39' W 009°06'3 5.7
2017-Dec-10 18:00N 38°42' W 009°08'3 5.8
2017-Dec-10 17:30N 38°39' W 009°06'3 5.6
2017-Dec-10 17:00N 38°42' W 009°08'3 5.2
2017-Dec-10 16:30N 38°40' W 009°06'3 5.2
2017-Dec-10 16:00N 38°42' W 009°08'3 5.6
2017-Dec-10 15:31N 38°39' W 009°06'3 6.0
2017-Dec-10 15:00N 38°42' W 009°08'3 6.3
2017-Dec-10 14:30N 38°39' W 009°06'3 6.3
2017-Dec-10 14:00N 38°42' W 009°08'3 5.8
2017-Dec-10 13:30N 38°39' W 009°06'1 0.2
2017-Dec-10 08:37N 38°39' W 009°05'1 6.1
2017-Dec-10 08:30N 38°39' W 009°06'1 1.2
2017-Dec-10 08:00N 38°39' W 009°05'0 0.8
2017-Dec-10 07:30N 38°39' W 009°05'2 4.0
2017-Dec-10 07:01N 38°40' W 009°07'1 2.6
2017-Dec-10 06:30N 38°40' W 009°06'2 4.5
2017-Dec-10 06:00N 38°42' W 009°08'3 6.7
2017-Dec-10 05:30N 38°39' W 009°05'  
2017-Dec-07 21:30N 38°39' W 009°05'4 8.4
2017-Dec-07 21:00N 38°42' W 009°08'4 8.3
2017-Dec-07 20:30N 38°39' W 009°05'2 4.7
2017-Dec-07 20:01N 38°40' W 009°07'1 1.4
2017-Dec-07 19:30N 38°41' W 009°08'1 1.1
2017-Dec-07 19:00N 38°40' W 009°07'1 2.9
2017-Dec-07 18:30N 38°39' W 009°06'3 6.7
2017-Dec-07 18:00N 38°42' W 009°08'4 8.4
2017-Dec-07 17:31N 38°39' W 009°05'4 8.4
2017-Dec-07 17:01N 38°42' W 009°08'4 7.4
2017-Dec-07 16:30N 38°39' W 009°06'3 5.6
2017-Dec-07 16:00N 38°42' W 009°08'3 1.2
2017-Dec-07 13:25N 38°39' W 009°05'3 8.4
2017-Dec-07 13:00N 38°42' W 009°08'3 5.5
2017-Dec-07 12:30N 38°39' W 009°06'3 5.1
2017-Dec-07 12:01N 38°41' W 009°08'3 5.6
2017-Dec-07 11:30N 38°39' W 009°06'1 1.2
2017-Dec-07 10:59N 38°39' W 009°05'0 0.1
2017-Dec-07 10:30N 38°39' W 009°05'4 8.5
2017-Dec-07 10:01N 38°42' W 009°08'4 8.3
2017-Dec-07 09:30N 38°39' W 009°05'4 8.4
2017-Dec-07 09:00N 38°42' W 009°08'4 7.7
2017-Dec-07 08:30N 38°39' W 009°05'2 4.7
2017-Dec-07 08:00N 38°41' W 009°08'1 1.7
2017-Dec-07 07:31N 38°40' W 009°07'1 1.6
2017-Dec-07 07:01N 38°40' W 009°06'1 0.1
2017-Dec-06 21:35N 38°39' W 009°05'0 0.0
2017-Dec-06 21:30N 38°39' W 009°05'4 8.3
2017-Dec-06 21:00N 38°42' W 009°08'  

Dump ship's entire track history